Time;durP1;ratioP1;P1;durP2;ratioP2;P2;SDS_P1;SDS_P2;PMS_P1;PMS_P2;Temp;Humidity;BMP_temperature;BMP_pressure;BME280_temperature;BME280_humidity;BME280_pressure;Samples;Min_cycle;Max_cycle;Signal;HPM_P1;HPM_P2
2021/01/03 00:01:54;;;;;;;39.23;22.98;;;;;;;-0.62;87.86;101492.75;1797204;79;21160;-48
2021/01/03 00:04:22;;;;;;;45.28;22.77;;;;;;;-0.54;87.71;101491.75;1798355;79;21125;-48
2021/01/03 00:06:51;;;;;;;47.00;23.12;;;;;;;-0.47;87.69;101489.42;1796012;79;21137;-48
2021/01/03 00:09:19;;;;;;;43.05;22.58;;;;;;;-0.43;87.53;101487.64;1798814;79;21484;-48
2021/01/03 00:11:47;;;;;;;46.88;24.47;;;;;;;-0.40;87.34;101491.48;1796358;79;21367;-48
2021/01/03 00:14:14;;;;;;;40.52;22.40;;;;;;;-0.42;87.14;101494.56;1796875;79;21177;-48
2021/01/03 00:16:47;;;;;;;40.12;22.00;;;;;;;-0.42;87.01;101494.56;1791050;79;21118;-48
2021/01/03 00:19:15;;;;;;;40.78;21.85;;;;;;;-0.46;86.89;101490.72;1797334;79;21158;-48
2021/01/03 00:21:42;;;;;;;42.88;22.20;;;;;;;-0.56;86.93;101493.52;1801201;79;21102;-49
2021/01/03 00:24:10;;;;;;;42.93;22.85;;;;;;;-0.63;87.16;101498.83;1800764;79;22194;-48
2021/01/03 00:26:38;;;;;;;41.68;22.25;;;;;;;-0.62;87.40;101504.45;1794792;79;21614;-49
2021/01/03 00:29:05;;;;;;;42.30;22.85;;;;;;;-0.55;87.69;101503.04;1797655;79;21149;-49
2021/01/03 00:31:33;;;;;;;45.98;23.02;;;;;;;-0.45;87.74;101506.73;1794448;79;21477;-49
2021/01/03 00:34:00;;;;;;;40.48;22.42;;;;;;;-0.42;87.52;101503.20;1768851;79;21104;-49
2021/01/03 00:36:29;;;;;;;35.25;21.35;;;;;;;-0.39;87.37;101504.45;1802591;79;21320;-49
2021/01/03 00:38:57;;;;;;;40.38;21.02;;;;;;;-0.38;87.18;101509.23;1798037;79;21632;-49
2021/01/03 00:41:25;;;;;;;43.45;21.65;;;;;;;-0.43;87.00;101504.09;1799670;79;21137;-49
2021/01/03 00:43:52;;;;;;;39.30;20.75;;;;;;;-0.43;86.96;101505.85;1799538;79;21110;-49
2021/01/03 00:46:20;;;;;;;34.58;19.98;;;;;;;-0.41;86.86;101501.48;1805994;77;21114;-49
2021/01/03 00:48:47;;;;;;;40.70;21.27;;;;;;;-0.42;86.66;101499.30;1798139;79;21384;-48
2021/01/03 00:51:15;;;;;;;38.28;20.25;;;;;;;-0.44;86.52;101499.77;1798214;79;21153;-48
2021/01/03 00:53:42;;;;;;;36.00;20.08;;;;;;;-0.46;86.55;101499.81;1795513;79;20987;-49
2021/01/03 00:56:10;;;;;;;35.98;20.12;;;;;;;-0.48;86.49;101497.69;1800989;79;21536;-49
2021/01/03 00:58:38;;;;;;;34.80;20.23;;;;;;;-0.47;86.55;101499.41;1801223;77;22092;-48
2021/01/03 01:01:06;;;;;;;34.18;18.65;;;;;;;-0.46;86.68;101492.02;1801859;77;21364;-48
2021/01/03 01:03:34;;;;;;;45.73;20.20;;;;;;;-0.51;86.55;101488.64;1801045;79;21153;-49
2021/01/03 01:06:01;;;;;;;35.25;18.65;;;;;;;-0.56;86.71;101482.66;1805338;79;21136;-49
2021/01/03 01:08:29;;;;;;;34.55;17.85;;;;;;;-0.56;86.89;101481.36;1796269;79;21109;-49
2021/01/03 01:10:57;;;;;;;39.40;20.45;;;;;;;-0.57;86.96;101480.95;1795868;79;21195;-49
2021/01/03 01:13:25;;;;;;;33.95;18.27;;;;;;;-0.60;87.16;101482.30;1795189;79;21252;-49
2021/01/03 01:15:55;;;;;;;36.00;18.77;;;;;;;-0.60;87.37;101484.90;1744453;81;22016;-49
2021/01/03 01:18:22;;;;;;;36.45;18.48;;;;;;;-0.61;87.47;101487.96;1764193;80;21137;-50
2021/01/03 01:20:50;;;;;;;33.45;18.12;;;;;;;-0.63;87.59;101482.35;1802487;79;21999;-49
2021/01/03 01:23:18;;;;;;;42.20;20.72;;;;;;;-0.69;87.83;101491.56;1799236;79;21102;-49
2021/01/03 01:25:46;;;;;;;36.73;18.60;;;;;;;-0.73;88.05;101493.38;1803210;79;21196;-49
2021/01/03 01:28:14;;;;;;;42.83;20.32;;;;;;;-0.73;88.29;101489.89;1740627;81;21161;-49
2021/01/03 01:30:41;;;;;;;38.45;21.10;;;;;;;-0.76;88.41;101486.47;1793612;79;21011;-49
2021/01/03 01:33:09;;;;;;;41.02;19.70;;;;;;;-0.78;88.57;101489.53;1798032;79;22055;-49
2021/01/03 01:35:37;;;;;;;33.18;18.37;;;;;;;-0.76;88.88;101485.16;1794643;79;21148;-49
2021/01/03 01:38:05;;;;;;;33.83;16.95;;;;;;;-0.73;88.99;101486.88;1797693;79;21305;-47
2021/01/03 01:40:36;;;;;;;30.17;16.95;;;;;;;-0.72;88.97;101479.91;1797711;79;22006;-48
2021/01/03 01:43:05;;;;;;;34.83;18.02;;;;;;;-0.72;88.98;101485.11;1734921;81;24650;-49
2021/01/03 01:45:36;;;;;;;37.05;18.30;;;;;;;-0.72;88.99;101485.11;1766331;80;22215;-48
2021/01/03 01:48:11;;;;;;;34.73;17.57;;;;;;;-0.72;89.14;101489.89;1794351;79;21098;-48
2021/01/03 01:50:49;;;;;;;38.40;18.60;;;;;;;-0.68;89.28;101490.67;1786618;79;23044;-49
2021/01/03 01:53:34;;;;;;;35.13;18.30;;;;;;;-0.70;89.27;101485.52;1799542;79;21404;-49
2021/01/03 01:56:28;;;;;;;34.67;18.45;;;;;;;-0.68;89.37;101479.84;1800682;79;20990;-48
2021/01/03 01:59:32;;;;;;;38.02;18.95;;;;;;;-0.69;89.46;101482.45;1790159;79;21787;-48
2021/01/03 02:02:14;;;;;;;34.38;17.67;;;;;;;-0.68;89.52;101484.17;1791244;79;21087;-48
2021/01/03 02:04:58;;;;;;;34.43;17.55;;;;;;;-0.68;89.59;101480.28;1769489;79;21389;-48
2021/01/03 02:07:36;;;;;;;31.82;18.52;;;;;;;-0.66;89.70;101483.28;1799358;79;22125;-49
2021/01/03 02:10:33;;;;;;;35.68;17.77;;;;;;;-0.63;89.74;101484.95;1800610;79;21007;-48
2021/01/03 02:13:21;;;;;;;38.48;19.55;;;;;;;-0.57;89.89;101484.84;1797417;79;21122;-48
2021/01/03 02:15:49;;;;;;;34.55;19.42;;;;;;;-0.47;89.93;101483.80;1796540;79;21134;-48
2021/01/03 02:18:17;;;;;;;41.23;20.27;;;;;;;-0.37;89.99;101487.53;1801542;79;21371;-49
2021/01/03 02:21:26;;;;;;;49.03;26.23;;;;;;;-0.30;89.98;101494.33;1800689;79;21604;-48
2021/01/03 02:24:20;;;;;;;42.73;23.20;;;;;;;-0.24;89.87;101490.74;1799364;79;21231;-48
2021/01/03 02:26:53;;;;;;;39.48;18.65;;;;;;;-0.20;89.57;101481.99;1801111;79;21153;-49
2021/01/03 02:29:21;;;;;;;51.88;28.90;;;;;;;-0.17;89.20;101485.41;1797944;79;22100;-48
2021/01/03 02:31:52;;;;;;;58.92;31.10;;;;;;;-0.15;88.98;101485.36;1799042;79;21967;-48
2021/01/03 02:34:39;;;;;;;51.10;26.07;;;;;;;-0.13;88.84;101491.39;1799367;79;21831;-48
2021/01/03 02:37:23;;;;;;;53.58;22.07;;;;;;;-0.12;88.68;101494.87;1797613;79;21753;-48
2021/01/03 02:40:07;;;;;;;46.53;21.23;;;;;;;-0.19;88.42;101487.19;1799472;79;21014;-49
2021/01/03 02:42:37;;;;;;;42.48;21.60;;;;;;;-0.27;88.50;101496.01;1796180;79;21089;-49
2021/01/03 02:45:16;;;;;;;37.78;19.23;;;;;;;-0.31;88.89;101488.72;1795034;79;21198;-49
2021/01/03 02:47:43;;;;;;;36.63;17.57;;;;;;;-0.30;89.22;101495.17;1802721;79;21939;-48
2021/01/03 02:50:16;;;;;;;37.25;18.67;;;;;;;-0.26;89.51;101492.52;1797736;79;21149;-48
2021/01/03 02:52:44;;;;;;;36.40;19.15;;;;;;;-0.20;89.79;101485.89;1742698;81;21780;-49
2021/01/03 02:55:13;;;;;;;34.67;19.17;;;;;;;-0.12;89.99;101489.67;1793061;79;21137;-49
2021/01/03 02:57:41;;;;;;;40.52;21.23;;;;;;;-0.04;90.07;101489.91;1795957;79;21556;-49
2021/01/03 03:00:15;;;;;;;33.38;18.52;;;;;;;0.02;89.98;101492.83;1802801;79;22169;-48
2021/01/03 03:02:43;;;;;;;33.33;18.98;;;;;;;0.05;89.98;101488.02;1786416;79;21113;-48
2021/01/03 03:05:12;;;;;;;33.28;19.42;;;;;;;0.09;90.07;101490.97;1795326;79;21117;-49
2021/01/03 03:07:40;;;;;;;36.33;19.20;;;;;;;0.14;90.17;101496.48;1766936;79;21097;-49
2021/01/03 03:10:10;;;;;;;31.23;18.17;;;;;;;0.21;90.34;101495.05;1799631;79;23187;-48
2021/01/03 03:12:38;;;;;;;31.07;16.55;;;;;;;0.27;90.39;101498.41;1795531;79;22067;-48
2021/01/03 03:15:08;;;;;;;36.20;19.62;;;;;;;0.33;90.46;101493.50;1798994;79;21003;-48
2021/01/03 03:17:36;;;;;;;42.50;20.88;;;;;;;0.36;90.35;101493.42;1801496;79;21118;-48
2021/01/03 03:20:06;;;;;;;36.90;20.48;;;;;;;0.42;90.53;101499.81;1800462;79;21121;-48
2021/01/03 03:22:33;;;;;;;37.85;19.23;;;;;;;0.50;90.64;101498.36;1794837;79;21869;-48
2021/01/03 03:25:01;;;;;;;40.33;21.37;;;;;;;0.55;90.75;101496.94;1796935;79;21130;-49
2021/01/03 03:27:29;;;;;;;39.30;19.77;;;;;;;0.55;90.90;101499.55;1795743;79;21018;-48
2021/01/03 03:29:57;;;;;;;37.80;19.65;;;;;;;0.51;91.16;101507.89;1794696;79;21125;-48
2021/01/03 03:32:25;;;;;;;40.12;21.70;;;;;;;0.44;91.43;101512.81;1802203;79;21701;-48
2021/01/03 03:34:52;;;;;;;39.35;20.12;;;;;;;0.35;91.78;101515.16;1797430;79;21400;-49
2021/01/03 03:37:20;;;;;;;45.43;21.33;;;;;;;0.29;92.09;101514.86;1794900;79;21003;-49
2021/01/03 03:39:47;;;;;;;45.73;23.12;;;;;;;0.24;92.30;101506.28;1797185;79;21114;-49
2021/01/03 03:42:15;;;;;;;40.43;21.23;;;;;;;0.21;92.52;101502.44;1797534;79;21129;-49
2021/01/03 03:44:43;;;;;;;41.33;22.50;;;;;;;0.20;92.71;101506.36;1745047;81;22121;-49
2021/01/03 03:47:11;;;;;;;40.40;21.12;;;;;;;0.19;92.90;101502.04;1793269;79;21389;-49
2021/01/03 03:49:39;;;;;;;45.67;21.40;;;;;;;0.19;93.00;101513.33;1801258;79;21125;-48
2021/01/03 03:52:07;;;;;;;40.83;21.07;;;;;;;0.16;93.10;101515.13;1802194;79;21141;-48
2021/01/03 03:54:34;;;;;;;44.27;23.55;;;;;;;0.13;93.26;101502.58;1800920;79;21160;-48
2021/01/03 03:57:04;;;;;;;38.13;21.42;;;;;;;0.12;93.36;101508.67;1802059;78;22140;-48
2021/01/03 03:59:31;;;;;;;45.33;23.80;;;;;;;0.12;93.46;101506.07;1803953;79;21176;-48
2021/01/03 04:01:59;;;;;;;44.13;22.15;;;;;;;0.16;93.57;101510.78;1798723;77;22166;-48
2021/01/03 04:04:27;;;;;;;42.10;24.02;;;;;;;0.16;93.62;101512.09;1798843;79;21938;-48
2021/01/03 04:06:55;;;;;;;41.20;20.95;;;;;;;0.13;93.65;101513.45;1797174;79;21628;-49
2021/01/03 04:09:23;;;;;;;47.15;23.67;;;;;;;0.12;93.69;101511.73;1800375;79;21097;-49
2021/01/03 04:11:51;;;;;;;45.78;22.20;;;;;;;0.09;93.76;101517.84;1799924;79;21258;-49
2021/01/03 04:14:22;;;;;;;40.15;21.20;;;;;;;0.08;93.89;101514.83;1802623;79;21951;-49
2021/01/03 04:16:57;;;;;;;42.43;21.93;;;;;;;0.07;93.97;101510.52;1799044;79;21023;-47
2021/01/03 04:19:25;;;;;;;43.00;21.68;;;;;;;0.07;94.05;101517.02;1801454;79;21100;-48
2021/01/03 04:22:02;;;;;;;42.98;21.57;;;;;;;0.07;94.09;101517.02;1799991;79;21572;-48
2021/01/03 04:24:30;;;;;;;42.05;21.40;;;;;;;0.06;94.19;101514.00;1804251;79;21200;-50
2021/01/03 04:27:04;;;;;;;48.08;22.90;;;;;;;0.06;94.28;101520.52;1804111;79;21125;-48
2021/01/03 04:29:32;;;;;;;44.45;22.67;;;;;;;0.04;94.31;101523.59;1799324;79;21584;-49
2021/01/03 04:32:05;;;;;;;46.50;23.15;;;;;;;-0.01;94.40;101513.74;1803338;79;21163;-49
2021/01/03 04:34:33;;;;;;;49.18;22.77;;;;;;;-0.04;94.61;101522.45;1801338;79;21090;-48
2021/01/03 04:37:01;;;;;;;43.13;21.50;;;;;;;-0.04;94.71;101524.21;1806667;79;21261;-49
2021/01/03 04:39:29;;;;;;;43.13;21.12;;;;;;;-0.03;94.76;101525.93;1792223;79;20994;-49
2021/01/03 04:42:08;;;;;;;43.40;22.42;;;;;;;-0.03;94.84;101527.23;1804931;77;20986;-49
2021/01/03 04:44:40;;;;;;;41.23;21.95;;;;;;;-0.04;94.89;101530.72;1799206;79;21945;-49
2021/01/03 04:47:29;;;;;;;40.55;20.05;;;;;;;-0.06;94.92;101531.20;1778037;79;22021;-49
2021/01/03 04:50:24;;;;;;;46.00;22.52;;;;;;;-0.06;95.03;101533.34;1792927;78;21937;-48
2021/01/03 04:53:04;;;;;;;43.48;22.22;;;;;;;-0.06;95.07;101528.59;1796925;79;21157;-49
2021/01/03 04:55:35;;;;;;;41.05;18.85;;;;;;;-0.04;95.15;101532.02;1800293;79;21113;-48
2021/01/03 04:58:17;;;;;;;37.25;18.90;;;;;;;-0.02;95.17;101531.09;1799398;77;21134;-49
2021/01/03 05:00:48;;;;;;;;;;;;;;;0.01;95.23;101524.95;1801672;79;21870;-48
2021/01/03 05:03:51;;;;;;;38.87;20.57;;;;;;;0.02;95.22;101532.33;1794650;79;21386;-48
2021/01/03 05:06:24;;;;;;;35.95;18.48;;;;;;;0.01;95.25;101534.06;1796284;79;21432;-49
2021/01/03 05:08:55;;;;;;;39.35;18.73;;;;;;;0.01;95.25;101535.36;1802296;77;20993;-48
2021/01/03 05:11:40;;;;;;;39.88;19.17;;;;;;;0.02;95.28;101535.78;1798488;79;22127;-48
2021/01/03 05:14:26;;;;;;;40.43;20.40;;;;;;;0.08;95.25;101530.91;1859275;75;22211;-48
2021/01/03 05:16:54;;;;;;;39.83;19.67;;;;;;;0.05;95.22;101535.72;1766439;80;22489;-48
2021/01/03 05:19:23;;;;;;;39.83;18.65;;;;;;;0.06;95.26;101541.80;1766541;80;21212;-49
2021/01/03 05:21:55;;;;;;;37.17;18.30;;;;;;;0.05;95.28;101542.23;1760095;80;21094;-48
2021/01/03 05:24:25;;;;;;;32.20;16.67;;;;;;;0.06;95.29;101535.29;1793424;78;21052;-49
2021/01/03 05:26:53;;;;;;;34.13;18.13;;;;;;;0.07;95.34;101536.55;1792241;78;21629;-48
2021/01/03 05:29:27;;;;;;;32.33;16.97;;;;;;;0.08;95.34;101543.47;1774885;78;22627;-49
2021/01/03 05:32:04;;;;;;;36.20;17.45;;;;;;;0.12;95.37;101537.77;1767397;79;21506;-48
2021/01/03 05:34:39;;;;;;;37.05;18.62;;;;;;;0.12;95.34;101544.28;1761023;80;21973;-48
2021/01/03 05:37:20;;;;;;;35.52;17.65;;;;;;;0.12;95.36;101545.13;1758564;80;21029;-48
2021/01/03 05:39:48;;;;;;;36.83;15.60;;;;;;;0.13;95.39;101545.54;1762638;80;21161;-49
2021/01/03 05:42:24;;;;;;;34.33;16.52;;;;;;;0.13;95.42;101544.23;1741779;80;20986;-48
2021/01/03 05:45:11;;;;;;;38.42;20.30;;;;;;;0.14;95.43;101547.25;1761137;80;22156;-48
2021/01/03 05:48:00;;;;;;;33.73;16.85;;;;;;;0.16;95.41;101553.75;1761096;80;21149;-48
2021/01/03 05:50:33;;;;;;;34.50;17.60;;;;;;;0.17;95.42;101554.59;1758387;80;21571;-48
2021/01/03 05:53:22;;;;;;;35.38;17.07;;;;;;;0.19;95.45;101559.33;1759684;80;20990;-48
2021/01/03 05:55:55;;;;;;;33.25;17.25;;;;;;;0.20;95.44;101558.44;1764676;80;22085;-48
2021/01/03 05:58:41;;;;;;;31.20;17.10;;;;;;;0.20;95.42;101558.44;1763300;80;21622;-48
2021/01/03 06:01:22;;;;;;;28.95;14.73;;;;;;;0.19;95.43;101558.02;1759754;80;21189;-48
2021/01/03 06:04:16;;;;;;;27.27;13.97;;;;;;;0.20;95.46;101564.52;1760512;80;21152;-49
2021/01/03 06:07:00;;;;;;;30.70;15.23;;;;;;;0.22;95.46;101556.23;1760603;80;22635;-49
2021/01/03 06:09:39;;;;;;;24.60;12.55;;;;;;;0.22;95.43;101561.88;1761934;80;20986;-49
2021/01/03 06:12:21;;;;;;;27.45;13.65;;;;;;;0.19;95.40;101564.53;1759589;80;23092;-49
2021/01/03 06:15:05;;;;;;;25.85;11.73;;;;;;;0.17;95.46;101558.50;1762373;80;21165;-49
2021/01/03 06:17:46;;;;;;;28.90;14.35;;;;;;;0.16;95.54;101555.05;1761884;80;22202;-48
2021/01/03 06:20:23;;;;;;;29.45;14.10;;;;;;;0.15;95.55;101558.55;1761143;80;21125;-48
2021/01/03 06:23:19;;;;;;;25.88;13.20;;;;;;;0.17;95.63;101567.19;1761489;80;20943;-48
2021/01/03 06:26:18;;;;;;;25.25;13.25;;;;;;;0.19;95.67;101564.11;1721866;81;23054;-49
2021/01/03 06:28:51;;;;;;;27.98;14.00;;;;;;;0.20;95.68;101558.44;1693960;83;21160;-49
2021/01/03 06:31:46;;;;;;;25.60;13.85;;;;;;;0.21;95.74;101565.36;1745321;79;21144;-50
2021/01/03 06:34:41;;;;;;;30.70;15.40;;;;;;;0.22;95.74;101561.88;1761419;80;21616;-49
2021/01/03 06:37:20;;;;;;;35.28;15.50;;;;;;;0.26;95.76;101555.72;1764251;80;21112;-49
2021/01/03 06:40:08;;;;;;;27.90;13.55;;;;;;;0.30;95.73;101565.18;1763120;80;21374;-49
2021/01/03 06:42:53;;;;;;;30.23;13.60;;;;;;;0.33;95.64;101565.58;1764397;80;21011;-49
2021/01/03 06:45:44;;;;;;;28.20;13.30;;;;;;;0.35;95.57;101570.31;1763085;80;21469;-49
2021/01/03 06:48:49;;;;;;;23.77;12.20;;;;;;;0.37;95.56;101563.33;1779943;80;21125;-48
2021/01/03 06:51:45;;;;;;;26.17;12.10;;;;;;;0.39;95.53;101562.85;1781840;80;21671;-48
2021/01/03 06:54:36;;;;;;;23.32;12.80;;;;;;;0.42;95.41;101567.54;1773547;80;21208;-49
2021/01/03 06:57:45;;;;;;;24.87;12.43;;;;;;;0.40;95.29;101562.80;1780068;80;21147;-49
2021/01/03 07:00:24;;;;;;;27.17;12.78;;;;;;;0.42;95.29;101556.28;1775596;80;21596;-48
2021/01/03 07:03:02;;;;;;;23.90;12.65;;;;;;;0.43;95.21;101567.95;1777095;79;21775;-49
2021/01/03 07:05:30;;;;;;;22.37;12.25;;;;;;;0.44;95.14;101571.43;1749658;80;21119;-48
2021/01/03 07:08:07;;;;;;;21.97;11.33;;;;;;;0.43;95.13;101575.77;1778288;80;21177;-48
2021/01/03 07:10:42;;;;;;;25.32;11.97;;;;;;;0.43;95.10;101577.06;1777008;80;21001;-49
2021/01/03 07:13:33;;;;;;;23.20;11.88;;;;;;;0.46;95.11;101581.80;1779466;80;21842;-49
2021/01/03 07:16:01;;;;;;;23.87;11.35;;;;;;;0.48;95.11;101582.63;1775710;80;20974;-49
2021/01/03 07:18:42;;;;;;;22.77;12.33;;;;;;;0.50;95.12;101577.81;1779679;80;21944;-49
2021/01/03 07:21:16;;;;;;;21.70;11.25;;;;;;;0.51;95.00;101585.17;1778964;80;21359;-49
2021/01/03 07:23:50;;;;;;;22.62;10.60;;;;;;;0.55;94.98;101579.85;1819685;77;23737;-48
2021/01/03 07:26:28;;;;;;;20.23;11.43;;;;;;;0.51;94.98;101572.14;1737488;77;21086;-48
2021/01/03 07:29:09;;;;;;;22.32;11.83;;;;;;;0.50;95.01;101569.13;1776687;78;23451;-49
2021/01/03 07:32:03;;;;;;;22.17;10.88;;;;;;;0.53;95.08;101580.79;1782722;78;22176;-49
2021/01/03 07:34:34;;;;;;;21.80;10.95;;;;;;;0.56;95.17;101579.42;1798753;78;21000;-49
2021/01/03 07:37:20;;;;;;;19.02;10.00;;;;;;;0.59;95.22;101574.98;1776967;78;20995;-48
2021/01/03 07:40:11;;;;;;;22.00;10.65;;;;;;;0.64;95.19;101580.13;1783212;79;21721;-49
2021/01/03 07:42:48;;;;;;;21.93;11.33;;;;;;;0.68;95.15;101575.69;1748513;79;22165;-49
2021/01/03 07:45:33;;;;;;;23.32;11.85;;;;;;;0.70;95.13;101572.17;1749087;79;21991;-49
2021/01/03 07:48:02;;;;;;;21.00;10.45;;;;;;;0.74;95.12;101570.34;1744468;80;21003;-49
2021/01/03 07:50:35;;;;;;;23.05;11.33;;;;;;;0.81;95.10;101573.69;1794908;78;21137;-49
2021/01/03 07:53:34;;;;;;;26.42;12.00;;;;;;;0.84;95.05;101572.31;1796494;78;21137;-48
2021/01/03 07:56:22;;;;;;;27.27;12.82;;;;;;;0.86;94.89;101570.53;1772895;79;21388;-49
2021/01/03 07:58:56;;;;;;;21.33;11.85;;;;;;;0.87;94.74;101573.55;1788925;79;20955;-49
2021/01/03 08:01:34;;;;;;;24.80;13.70;;;;;;;0.89;94.63;101575.67;1803617;78;21125;-49
2021/01/03 08:04:24;;;;;;;27.93;14.03;;;;;;;0.92;94.63;101577.34;1767897;78;21107;-49
2021/01/03 08:07:14;;;;;;;27.80;13.90;;;;;;;0.94;94.49;101566.44;1790013;78;21636;-49
2021/01/03 08:09:43;;;;;;;27.27;13.58;;;;;;;0.95;94.42;101566.84;1802319;78;21730;-48
2021/01/03 08:12:34;;;;;;;29.75;14.58;;;;;;;0.96;94.38;101566.83;1783502;79;22119;-49
2021/01/03 08:15:13;;;;;;;38.50;15.63;;;;;;;0.99;94.26;101564.58;1764483;78;21114;-49
2021/01/03 08:17:42;;;;;;;39.10;18.25;;;;;;;1.03;94.23;101573.62;1761130;78;21641;-49
2021/01/03 08:20:20;;;;;;;44.25;17.70;;;;;;;1.06;94.10;101562.70;1801609;78;21120;-48
2021/01/03 08:22:47;;;;;;;34.03;16.20;;;;;;;1.07;94.08;101559.17;1780796;78;22667;-49
2021/01/03 08:25:24;;;;;;;33.53;15.80;;;;;;;1.08;94.04;101578.72;1776650;78;21140;-49
2021/01/03 08:28:16;;;;;;;40.15;18.62;;;;;;;1.11;94.04;101571.25;1759181;79;22192;-48
2021/01/03 08:30:44;;;;;;;45.70;18.30;;;;;;;1.15;94.07;101578.11;1798157;78;21142;-49
2021/01/03 08:33:20;;;;;;;42.40;18.02;;;;;;;1.17;93.99;101576.33;1769643;78;21111;-49
2021/01/03 08:35:48;;;;;;;40.80;16.93;;;;;;;1.17;93.88;101575.02;1791493;78;21452;-49
2021/01/03 08:38:27;;;;;;;44.38;18.12;;;;;;;1.18;93.91;101570.21;1796809;78;21638;-48
2021/01/03 08:41:04;;;;;;;40.30;16.45;;;;;;;1.20;93.88;101578.86;1797591;78;22153;-49
2021/01/03 08:43:32;;;;;;;42.35;17.75;;;;;;;1.22;93.89;101584.05;1798554;78;22099;-49
2021/01/03 08:46:04;;;;;;;35.45;15.80;;;;;;;1.22;93.93;101580.98;1800806;78;20952;-49
2021/01/03 08:48:31;;;;;;;44.63;17.45;;;;;;;1.25;93.98;101582.22;1802094;78;21257;-49
2021/01/03 08:51:11;;;;;;;31.62;14.80;;;;;;;1.30;94.04;101583.42;1791554;78;21035;-48
2021/01/03 08:53:38;;;;;;;34.88;14.70;;;;;;;1.34;94.07;101586.37;1807138;78;21022;-49
2021/01/03 08:56:22;;;;;;;29.02;14.50;;;;;;;1.33;93.89;101578.98;1798543;78;21629;-49
2021/01/03 08:58:50;;;;;;;37.55;17.57;;;;;;;1.35;93.86;101582.87;1783356;80;22135;-50
2021/01/03 09:01:21;;;;;;;37.53;15.15;;;;;;;1.36;93.85;101585.02;1763037;79;21295;-49
2021/01/03 09:03:51;;;;;;;43.17;18.00;;;;;;;1.38;93.75;101581.49;1749234;79;20999;-48
2021/01/03 09:06:19;;;;;;;41.30;18.25;;;;;;;1.38;93.63;101574.97;1773045;78;21408;-49
2021/01/03 09:08:46;;;;;;;38.08;18.25;;;;;;;1.37;93.61;101578.91;1783689;78;21126;-49
2021/01/03 09:11:33;;;;;;;31.10;15.72;;;;;;;1.37;93.61;101579.78;1762282;79;21945;-49
2021/01/03 09:14:20;;;;;;;32.25;15.25;;;;;;;1.38;93.57;101580.19;1770565;78;21173;-49
2021/01/03 09:17:01;;;;;;;31.05;16.77;;;;;;;1.40;93.51;101584.05;1799334;78;20976;-50
2021/01/03 09:20:14;;;;;;;31.60;17.17;;;;;;;1.39;93.46;101579.30;1778426;78;21133;-49
2021/01/03 09:22:46;;;;;;;32.08;16.95;;;;;;;1.37;93.40;101580.20;1782169;79;21022;-48
2021/01/03 09:25:21;;;;;;;36.63;16.82;;;;;;;1.41;93.54;101581.85;1764309;80;21560;-49
2021/01/03 09:27:54;;;;;;;41.25;19.40;;;;;;;1.42;93.33;101581.83;1719096;81;21391;-50
2021/01/03 09:30:34;;;;;;;34.38;16.57;;;;;;;1.44;93.25;101581.77;1748275;81;20977;-48
2021/01/03 09:33:15;;;;;;;35.65;15.05;;;;;;;1.47;93.14;101572.56;1749779;80;21629;-49
2021/01/03 09:36:03;;;;;;;31.95;16.32;;;;;;;1.47;92.88;101577.36;1750783;81;21127;-48
2021/01/03 09:38:55;;;;;;;33.20;16.48;;;;;;;1.52;92.58;101580.30;1857464;75;22380;-49
2021/01/03 09:41:49;;;;;;;34.98;15.83;;;;;;;1.47;92.51;101580.39;1826733;77;21502;-49
2021/01/03 09:44:40;;;;;;;35.85;16.90;;;;;;;1.53;92.65;101572.87;1821123;77;21640;-49
2021/01/03 09:47:13;;;;;;;30.70;16.12;;;;;;;1.59;92.68;101570.95;1825994;77;21224;-49
2021/01/03 09:49:49;;;;;;;35.85;16.80;;;;;;;1.63;92.35;101567.80;1771552;78;21188;-49
2021/01/03 09:52:29;;;;;;;28.50;14.83;;;;;;;1.62;91.93;101563.48;1768409;79;21201;-49
2021/01/03 09:55:13;;;;;;;26.07;14.58;;;;;;;1.61;91.78;101563.95;1798356;78;21023;-49
2021/01/03 09:57:51;;;;;;;28.23;15.63;;;;;;;1.58;91.52;101564.48;1798874;79;23418;-49
2021/01/03 10:00:27;;;;;;;31.85;15.83;;;;;;;1.55;91.35;101560.65;1791790;79;21240;-49
2021/01/03 10:03:00;;;;;;;32.23;15.83;;;;;;;1.52;91.38;101562.87;1797068;78;21045;-49
2021/01/03 10:05:32;;;;;;;37.23;17.15;;;;;;;1.52;91.40;101565.48;1793231;79;21558;-49
2021/01/03 10:08:03;;;;;;;33.10;17.27;;;;;;;1.53;91.39;101564.59;1797036;79;21678;-49
2021/01/03 10:10:58;;;;;;;38.48;17.55;;;;;;;1.55;91.24;101558.04;1774699;79;21203;-49
2021/01/03 10:13:28;;;;;;;39.65;16.77;;;;;;;1.56;91.29;101555.37;1773264;79;21197;-49
2021/01/03 10:15:57;;;;;;;34.00;17.37;;;;;;;1.64;91.35;101554.33;1770349;79;21561;-49
2021/01/03 10:18:37;;;;;;;34.25;16.87;;;;;;;1.66;91.13;101553.84;1779016;79;21274;-49
2021/01/03 10:21:31;;;;;;;;;;;;;;;1.69;90.93;101542.02;1777670;79;21204;-48
2021/01/03 10:24:15;;;;;;;38.13;17.00;;;;;;;1.72;90.99;101541.93;1771987;79;21314;-49
2021/01/03 10:26:46;;;;;;;36.53;18.07;;;;;;;1.77;90.93;101539.59;1794497;78;22048;-49
2021/01/03 10:29:14;;;;;;;35.40;16.37;;;;;;;1.79;90.57;101533.04;1794175;78;21501;-49
2021/01/03 10:31:48;;;;;;;32.70;15.70;;;;;;;1.81;90.33;101536.47;1789756;78;21213;-50
2021/01/03 10:34:18;;;;;;;35.60;18.40;;;;;;;1.80;90.15;101534.75;1748922;81;21236;-49
2021/01/03 10:36:46;;;;;;;30.10;15.78;;;;;;;1.78;90.20;101533.94;1737803;81;21409;-49
2021/01/03 10:39:15;;;;;;;30.55;15.05;;;;;;;1.80;90.34;101533.45;1733560;81;21232;-49
2021/01/03 10:41:46;;;;;;;35.15;17.95;;;;;;;1.78;90.24;101518.27;1737419;81;21200;-50
2021/01/03 10:44:16;;;;;;;31.05;16.15;;;;;;;1.79;90.28;101514.77;1731601;81;21510;-49
2021/01/03 10:46:46;;;;;;;34.48;16.82;;;;;;;1.86;90.57;101519.35;1722279;81;22057;-49
2021/01/03 10:49:14;;;;;;;33.48;15.98;;;;;;;1.90;90.19;101515.77;1715691;81;23616;-49
2021/01/03 10:51:44;;;;;;;34.70;15.83;;;;;;;1.90;89.88;101515.33;1717632;81;21208;-49
2021/01/03 10:54:15;;;;;;;29.63;15.38;;;;;;;1.87;89.45;101519.77;1721972;81;21138;-49
2021/01/03 10:56:50;;;;;;;32.42;15.08;;;;;;;1.83;89.32;101515.09;1721605;81;21230;-49
2021/01/03 10:59:17;;;;;;;33.25;15.78;;;;;;;1.82;89.57;101513.38;1732555;81;22088;-49
2021/01/03 11:01:45;;;;;;;33.13;16.85;;;;;;;1.81;89.52;101510.36;1726972;81;21565;-50
2021/01/03 11:04:15;;;;;;;33.48;17.55;;;;;;;1.83;89.53;101512.48;1729685;81;21049;-50
2021/01/03 11:06:46;;;;;;;31.12;15.68;;;;;;;1.84;89.53;101508.09;1737214;81;21596;-49
2021/01/03 11:09:18;;;;;;;31.25;15.93;;;;;;;1.88;89.65;101509.29;1728471;81;20991;-48
2021/01/03 11:11:45;;;;;;;29.35;14.18;;;;;;;1.86;89.46;101501.95;1750428;80;21097;-49
2021/01/03 11:14:13;;;;;;;30.68;16.10;;;;;;;1.87;89.51;101504.97;1729491;81;21150;-48
2021/01/03 11:16:42;;;;;;;32.67;17.65;;;;;;;1.85;89.54;101498.06;1730408;81;22200;-49
2021/01/03 11:19:13;;;;;;;29.50;15.20;;;;;;;1.88;89.72;101504.50;1721993;81;21645;-49
2021/01/03 11:21:41;;;;;;;30.12;15.60;;;;;;;1.90;89.70;101506.19;1728496;81;20956;-49
2021/01/03 11:24:10;;;;;;;26.97;14.93;;;;;;;1.91;89.55;101505.30;1728056;81;21136;-49
2021/01/03 11:26:41;;;;;;;29.15;16.32;;;;;;;1.94;89.55;101513.94;1733377;81;21390;-49
2021/01/03 11:29:19;;;;;;;33.13;15.88;;;;;;;1.95;89.52;101509.97;1736986;81;21136;-49
2021/01/03 11:31:51;;;;;;;29.10;16.82;;;;;;;1.98;89.39;101499.90;1727746;81;20991;-49
2021/01/03 11:34:22;;;;;;;36.25;15.70;;;;;;;1.98;89.25;101502.05;1731369;81;21957;-48
2021/01/03 11:36:53;;;;;;;28.05;17.05;;;;;;;1.90;89.09;101514.02;1726954;81;20987;-49
2021/01/03 11:39:21;;;;;;;33.53;18.48;;;;;;;1.82;89.04;101499.02;1710340;81;22120;-50
2021/01/03 11:41:49;;;;;;;26.55;15.78;;;;;;;1.78;89.21;101489.55;1719352;82;21146;-49
2021/01/03 11:44:19;;;;;;;26.50;15.93;;;;;;;1.76;89.23;101492.66;1739307;81;21149;-49
2021/01/03 11:46:47;;;;;;;27.07;16.10;;;;;;;1.73;89.28;101497.50;1712640;83;21638;-49
2021/01/03 11:49:17;;;;;;;27.75;16.45;;;;;;;1.75;89.37;101495.70;1712655;82;21142;-49
2021/01/03 11:51:49;;;;;;;27.10;15.78;;;;;;;1.78;89.31;101494.78;1738697;81;22353;-49